createdAt,value
2019-04-27T00:02:36.883Z,32.00
2019-04-27T00:05:41.270Z,32.00
2019-04-27T00:08:39.170Z,32.00
2019-04-27T00:11:53.865Z,32.00
2019-04-27T00:14:52.255Z,32.00
2019-04-27T00:18:13.929Z,32.00
2019-04-27T00:21:11.262Z,32.00
2019-04-27T00:24:04.160Z,32.00
2019-04-27T00:26:56.393Z,32.00
2019-04-27T00:29:49.805Z,32.00
2019-04-27T00:32:43.587Z,32.10
2019-04-27T00:35:59.699Z,32.10
2019-04-27T00:39:07.033Z,32.00
2019-04-27T00:42:00.832Z,32.10
2019-04-27T00:44:54.156Z,32.00
2019-04-27T00:47:56.298Z,32.10
2019-04-27T00:50:43.779Z,32.00
2019-04-27T00:53:36.684Z,32.10
2019-04-27T00:56:40.599Z,36.40
2019-04-27T01:02:53.639Z,32.10
2019-04-27T01:05:47.306Z,32.10
2019-04-27T01:08:40.987Z,32.10
2019-04-27T01:11:36.207Z,32.10
2019-04-27T01:14:30.556Z,32.10
2019-04-27T01:17:23.826Z,32.10
2019-04-27T01:20:18.550Z,32.10
2019-04-27T01:23:13.533Z,32.10
2019-04-27T01:26:35.368Z,32.10
2019-04-27T01:29:30.852Z,32.10
2019-04-27T01:35:18.624Z,32.10
2019-04-27T01:38:12.360Z,32.10
2019-04-27T01:41:05.302Z,32.10
2019-04-27T01:44:00.870Z,32.10
2019-04-27T01:46:54.995Z,32.10
2019-04-27T01:49:49.424Z,32.10
2019-04-27T01:52:43.180Z,32.10
2019-04-27T01:55:38.673Z,32.10
2019-04-27T01:58:33.922Z,32.10
2019-04-27T02:01:38.980Z,32.10
2019-04-27T02:04:50.866Z,32.10
2019-04-27T02:07:45.984Z,32.10
2019-04-27T02:10:39.982Z,32.10
2019-04-27T02:13:35.441Z,32.10
2019-04-27T02:16:30.552Z,32.10
2019-04-27T02:19:24.454Z,32.10
2019-04-27T02:22:18.692Z,32.10
2019-04-27T02:25:12.657Z,32.20
2019-04-27T02:31:20.660Z,32.20
2019-04-27T02:34:16.579Z,32.20
2019-04-27T02:37:10.256Z,32.10
2019-04-27T02:40:04.461Z,32.20
2019-04-27T02:43:00.376Z,32.20
2019-04-27T02:45:53.357Z,32.20
2019-04-27T02:48:56.719Z,32.20
2019-04-27T02:51:59.461Z,32.20
2019-04-27T02:54:52.644Z,32.20
2019-04-27T02:57:46.046Z,32.20
2019-04-27T03:00:40.407Z,32.20
2019-04-27T03:03:34.306Z,32.20
2019-04-27T03:06:26.762Z,32.20
2019-04-27T03:09:20.876Z,32.20
2019-04-27T03:12:14.055Z,32.20
2019-04-27T03:15:23.510Z,32.20
2019-04-27T03:18:34.254Z,32.20
2019-04-27T03:21:39.603Z,32.20
2019-04-27T03:24:50.852Z,32.20
2019-04-27T03:27:45.173Z,32.20
2019-04-27T03:30:42.625Z,32.20
2019-04-27T03:33:36.261Z,32.30
2019-04-27T03:36:31.743Z,32.20
2019-04-27T03:39:27.572Z,32.30
2019-04-27T03:42:25.477Z,32.30
2019-04-27T03:45:21.511Z,32.20
2019-04-27T03:48:14.957Z,32.20
2019-04-27T03:51:29.964Z,32.30
2019-04-27T03:54:35.841Z,32.30
2019-04-27T03:57:40.522Z,32.30
2019-04-27T04:00:34.025Z,32.30
2019-04-27T04:03:29.709Z,32.30
2019-04-27T04:06:25.608Z,32.30
2019-04-27T04:09:21.979Z,32.30
2019-04-27T04:12:24.037Z,32.30
2019-04-27T04:15:39.693Z,32.30
2019-04-27T04:18:34.863Z,32.30
2019-04-27T04:21:29.873Z,32.30
2019-04-27T04:24:23.128Z,32.30
2019-04-27T04:27:20.065Z,32.30
2019-04-27T04:30:12.954Z,32.30
2019-04-27T04:33:09.890Z,32.30
2019-04-27T04:36:02.562Z,32.30
2019-04-27T04:38:57.164Z,32.30
2019-04-27T04:41:59.490Z,32.30
2019-04-27T04:45:20.310Z,32.30
2019-04-27T04:51:07.291Z,32.30
2019-04-27T04:54:00.406Z,32.30
2019-04-27T04:56:52.848Z,32.30
2019-04-27T04:59:45.240Z,32.30
2019-04-27T05:02:39.591Z,32.30
2019-04-27T05:05:32.077Z,32.40
2019-04-27T05:08:24.279Z,32.40
2019-04-27T05:11:16.892Z,32.40
2019-04-27T05:14:10.973Z,29.00
2019-04-27T05:17:04.893Z,32.70
2019-04-27T05:20:01.881Z,32.70
2019-04-27T05:22:55.720Z,32.60
2019-04-27T05:25:53.177Z,32.50
2019-04-27T05:28:50.300Z,32.50
2019-04-27T05:31:46.287Z,32.50
2019-04-27T05:34:43.121Z,32.40
2019-04-27T05:37:41.027Z,32.30
2019-04-27T05:40:35.365Z,32.30
2019-04-27T05:43:34.320Z,32.20
2019-04-27T05:46:58.953Z,32.10
2019-04-27T05:49:58.919Z,32.10
2019-04-27T05:52:52.304Z,32.10
2019-04-27T05:55:47.294Z,31.60
2019-04-27T05:58:42.539Z,32.00
2019-04-27T06:01:38.910Z,31.60
2019-04-27T06:04:35.551Z,31.20
2019-04-27T06:07:30.499Z,30.90
2019-04-27T06:10:24.917Z,30.70
2019-04-27T06:13:19.000Z,30.30
2019-04-27T06:16:13.554Z,31.00
2019-04-27T06:19:09.439Z,31.30
2019-04-27T06:22:02.247Z,31.50
2019-04-27T06:25:00.215Z,29.50
2019-04-27T06:27:55.358Z,31.30
2019-04-27T06:30:49.225Z,30.80
2019-04-27T06:33:43.310Z,30.50
2019-04-27T06:36:38.578Z,30.30
2019-04-27T06:39:30.564Z,30.30
2019-04-27T06:42:24.787Z,30.20
2019-04-27T06:45:19.700Z,30.10
2019-04-27T06:48:13.600Z,30.00
2019-04-27T06:51:09.649Z,29.90
2019-04-27T06:54:04.628Z,29.80
2019-04-27T06:56:59.664Z,29.80
2019-04-27T06:59:52.830Z,29.70
2019-04-27T07:02:55.405Z,29.50
2019-04-27T07:05:52.208Z,29.80
2019-04-27T07:08:49.805Z,29.90
2019-04-27T07:11:45.516Z,29.90
2019-04-27T07:14:51.995Z,29.90
2019-04-27T07:17:34.607Z,30.20
2019-04-27T07:20:28.752Z,30.50
2019-04-27T07:23:23.026Z,30.90
2019-04-27T07:26:16.279Z,31.10
2019-04-27T07:29:12.940Z,31.20
2019-04-27T07:32:09.180Z,31.40
2019-04-27T07:35:02.147Z,31.50
2019-04-27T07:37:56.563Z,31.60
2019-04-27T07:40:51.127Z,31.70
2019-04-27T07:44:06.235Z,31.70
2019-04-27T07:47:35.989Z,31.80
2019-04-27T07:50:33.756Z,31.90
2019-04-27T07:53:29.176Z,32.00
2019-04-27T07:56:23.256Z,27.70
2019-04-27T07:59:18.893Z,31.90
2019-04-27T08:02:19.033Z,31.90
2019-04-27T08:05:16.310Z,31.80
2019-04-27T08:08:10.412Z,31.70
2019-04-27T08:11:06.520Z,31.70
2019-04-27T08:14:01.439Z,31.60
2019-04-27T08:16:56.176Z,31.60
2019-04-27T08:19:49.588Z,31.50
2019-04-27T08:22:44.110Z,31.50
2019-04-27T08:28:38.721Z,31.20
2019-04-27T08:31:43.322Z,31.20
2019-04-27T08:37:29.685Z,31.20
2019-04-27T08:43:15.775Z,31.10
2019-04-27T08:46:09.545Z,30.90
2019-04-27T08:49:04.036Z,30.90
2019-04-27T08:52:01.198Z,30.90
2019-04-27T08:54:53.917Z,30.80
2019-04-27T08:58:00.548Z,30.60
2019-04-27T09:00:55.581Z,30.60
2019-04-27T09:03:49.671Z,30.60
2019-04-27T09:06:49.360Z,30.50
2019-04-27T09:09:49.780Z,30.50
2019-04-27T09:13:00.477Z,30.40
2019-04-27T09:16:11.353Z,30.40
2019-04-27T09:19:10.101Z,30.40
2019-04-27T09:22:16.143Z,30.30
2019-04-27T09:25:16.188Z,30.30
2019-04-27T09:28:10.562Z,30.20
2019-04-27T09:31:05.447Z,30.40
2019-04-27T09:34:00.187Z,30.60
2019-04-27T09:36:56.575Z,30.60
2019-04-27T09:39:52.655Z,30.70
2019-04-27T09:42:52.708Z,30.70
2019-04-27T09:46:05.706Z,30.70
2019-04-27T09:49:17.104Z,30.70
2019-04-27T09:52:23.694Z,30.80
2019-04-27T09:55:08.927Z,30.70
2019-04-27T09:58:03.307Z,30.80
2019-04-27T10:00:57.467Z,30.70
2019-04-27T10:06:46.487Z,30.60
2019-04-27T10:09:47.327Z,30.60
2019-04-27T10:12:46.524Z,30.50
2019-04-27T10:15:41.955Z,30.50
2019-04-27T10:18:37.395Z,30.80
2019-04-27T10:24:46.722Z,31.00
2019-04-27T10:27:41.512Z,31.20
2019-04-27T10:30:36.570Z,31.30
2019-04-27T10:33:30.428Z,31.50
2019-04-27T10:36:45.941Z,31.60
2019-04-27T10:39:39.959Z,31.80
2019-04-27T10:42:38.149Z,31.80
2019-04-27T10:45:32.858Z,31.70
2019-04-27T10:48:26.963Z,31.70
2019-04-27T10:51:19.929Z,31.70
2019-04-27T10:54:13.194Z,31.50
2019-04-27T10:57:06.243Z,31.10
2019-04-27T10:59:59.850Z,30.90
2019-04-27T11:02:56.493Z,30.80
2019-04-27T11:06:12.135Z,30.70
2019-04-27T11:09:09.104Z,30.50
2019-04-27T11:12:06.898Z,30.50
2019-04-27T11:15:02.951Z,30.80
2019-04-27T11:17:56.533Z,31.00
2019-04-27T11:20:50.905Z,31.20
2019-04-27T11:23:46.707Z,30.90
2019-04-27T11:26:40.961Z,30.20
2019-04-27T11:29:33.571Z,29.60
2019-04-27T11:32:27.220Z,29.10
2019-04-27T11:35:38.723Z,29.70
2019-04-27T11:38:31.141Z,28.00
2019-04-27T11:41:26.608Z,29.90
2019-04-27T11:44:21.099Z,29.50
2019-04-27T11:47:16.238Z,29.60
2019-04-27T11:50:12.652Z,29.70
2019-04-27T11:53:19.817Z,29.60
2019-04-27T11:56:04.878Z,29.80
2019-04-27T11:59:01.323Z,30.20
2019-04-27T12:01:56.264Z,30.40
2019-04-27T12:04:51.895Z,30.40
2019-04-27T12:07:47.526Z,30.50
2019-04-27T12:10:39.578Z,30.00
2019-04-27T12:13:32.387Z,29.60
2019-04-27T12:16:26.221Z,29.30
2019-04-27T12:19:19.383Z,29.20
2019-04-27T12:22:13.082Z,29.20
2019-04-27T12:25:06.768Z,29.40
2019-04-27T12:28:23.380Z,29.60
2019-04-27T12:31:44.809Z,29.70
2019-04-27T12:34:37.494Z,29.70
2019-04-27T12:37:30.970Z,29.80
2019-04-27T12:40:23.706Z,29.60
2019-04-27T12:43:16.159Z,29.40
2019-04-27T12:46:09.502Z,29.40
2019-04-27T12:49:02.234Z,26.00
2019-04-27T12:51:55.830Z,29.40
2019-04-27T12:54:58.094Z,29.60
2019-04-27T12:58:06.678Z,29.60
2019-04-27T13:00:59.007Z,29.50
2019-04-27T13:03:51.401Z,29.60
2019-04-27T13:06:44.352Z,29.70
2019-04-27T13:09:36.876Z,29.60
2019-04-27T13:12:30.420Z,29.70
2019-04-27T13:15:22.952Z,29.80
2019-04-27T13:18:17.792Z,29.80
2019-04-27T13:21:10.406Z,30.00
2019-04-27T13:24:05.088Z,30.00
2019-04-27T13:26:56.393Z,30.00
2019-04-27T13:29:49.890Z,30.00
2019-04-27T13:32:42.383Z,30.10
2019-04-27T13:35:34.642Z,30.00
2019-04-27T13:38:26.804Z,30.10
2019-04-27T13:41:28.220Z,30.10
2019-04-27T13:44:12.787Z,30.10
2019-04-27T13:47:29.531Z,30.10
2019-04-27T13:50:37.330Z,30.20
2019-04-27T13:53:30.261Z,30.20
2019-04-27T13:56:23.542Z,30.40
2019-04-27T13:59:15.904Z,30.50
2019-04-27T14:02:08.319Z,30.50
2019-04-27T14:05:02.505Z,30.60
2019-04-27T14:07:56.470Z,30.60
2019-04-27T14:10:51.406Z,30.70
2019-04-27T14:13:48.371Z,30.70
2019-04-27T14:16:43.931Z,30.80
2019-04-27T14:19:39.947Z,30.80
2019-04-27T14:22:33.809Z,30.80
2019-04-27T14:25:28.060Z,30.90
2019-04-27T14:28:21.281Z,30.90
2019-04-27T14:31:14.629Z,31.00
2019-04-27T14:34:09.164Z,30.90
2019-04-27T14:37:02.039Z,31.00
2019-04-27T14:39:55.233Z,31.00
2019-04-27T14:42:50.280Z,31.00
2019-04-27T14:45:42.790Z,31.00
2019-04-27T14:48:36.055Z,31.00
2019-04-27T14:51:30.332Z,31.00
2019-04-27T14:54:24.393Z,31.00
2019-04-27T14:57:18.405Z,31.10
2019-04-27T15:00:14.896Z,31.10
2019-04-27T15:03:07.722Z,31.10
2019-04-27T15:06:00.575Z,31.10
2019-04-27T15:08:55.654Z,31.10
2019-04-27T15:11:49.323Z,31.10
2019-04-27T15:14:43.568Z,31.20
2019-04-27T15:17:40.092Z,31.20
2019-04-27T15:20:41.013Z,31.20
2019-04-27T15:23:34.527Z,31.20
2019-04-27T15:26:28.324Z,31.20
2019-04-27T15:29:25.191Z,31.20
2019-04-27T15:32:24.275Z,31.20
2019-04-27T15:35:35.589Z,31.30
2019-04-27T15:38:28.800Z,31.30
2019-04-27T15:41:31.575Z,31.30
2019-04-27T15:44:27.821Z,31.30
2019-04-27T15:47:20.761Z,31.30
2019-04-27T15:50:15.308Z,31.30
2019-04-27T15:53:12.321Z,31.40
2019-04-27T15:56:02.885Z,31.40
2019-04-27T15:58:59.613Z,31.40
2019-04-27T16:01:51.200Z,31.40
2019-04-27T16:04:49.813Z,31.40
2019-04-27T16:07:41.196Z,31.40
2019-04-27T16:10:37.314Z,31.40
2019-04-27T16:13:32.885Z,32.10
2019-04-27T16:16:24.457Z,31.40
2019-04-27T16:19:18.570Z,31.40
2019-04-27T16:22:12.003Z,31.40
2019-04-27T16:25:04.947Z,31.40
2019-04-27T16:27:58.837Z,31.50
2019-04-27T16:50:31.318Z,31.60
2019-04-27T16:53:23.265Z,31.60
2019-04-27T16:56:18.146Z,31.70
2019-04-27T16:59:35.606Z,31.70
2019-04-27T17:02:02.453Z,31.70
2019-04-27T17:04:55.671Z,31.70
2019-04-27T17:19:41.259Z,31.80
2019-04-27T17:25:23.453Z,31.80
2019-04-27T17:28:16.686Z,31.80
2019-04-27T17:34:04.059Z,31.80
2019-04-27T17:39:53.602Z,31.90
2019-04-27T17:45:36.346Z,31.80
2019-04-27T17:48:29.306Z,31.80
2019-04-27T17:51:21.930Z,31.80
2019-04-27T17:54:14.882Z,31.80
2019-04-27T18:00:03.478Z,31.90
2019-04-27T18:02:58.569Z,31.80
2019-04-27T18:05:52.028Z,31.80
2019-04-27T18:17:22.829Z,31.90
2019-04-27T18:20:18.395Z,31.90
2019-04-27T18:23:16.173Z,31.90
2019-04-27T18:29:10.574Z,31.90
2019-04-27T18:32:03.270Z,31.90
2019-04-27T18:34:56.063Z,31.90
2019-04-27T18:37:53.449Z,31.90
2019-04-27T18:52:48.233Z,32.00
2019-04-27T18:55:43.147Z,32.00
2019-04-27T19:04:18.989Z,32.00
2019-04-27T19:07:11.256Z,32.00
2019-04-27T19:12:54.715Z,32.00
2019-04-27T19:18:39.766Z,32.00
2019-04-27T19:21:32.409Z,32.00
2019-04-27T19:27:37.031Z,32.00
2019-04-27T19:36:19.189Z,32.00
2019-04-27T19:39:14.996Z,32.00
2019-04-27T19:47:52.075Z,32.10
2019-04-27T19:50:44.931Z,32.10
2019-04-27T19:56:29.226Z,32.10
2019-04-27T19:59:28.052Z,32.10
2019-04-27T20:05:17.013Z,32.10
2019-04-27T20:08:12.932Z,32.10
2019-04-27T20:11:05.809Z,32.10
2019-04-27T20:14:00.711Z,32.10
2019-04-27T20:19:44.969Z,32.10
2019-04-27T20:22:37.182Z,32.10
2019-04-27T20:28:23.105Z,32.10
2019-04-27T20:31:15.363Z,32.20
2019-04-27T20:36:58.363Z,32.10
2019-04-27T20:39:51.508Z,32.20
2019-04-27T20:42:44.068Z,32.10
2019-04-27T20:45:36.134Z,32.10
2019-04-27T20:51:21.301Z,32.10
2019-04-27T20:57:04.646Z,32.20
2019-04-27T20:59:57.395Z,32.20
2019-04-27T21:03:01.333Z,32.20
2019-04-27T21:11:48.194Z,32.20
2019-04-27T21:14:41.754Z,32.20
2019-04-27T21:17:34.706Z,32.20
2019-04-27T21:20:27.425Z,32.20
2019-04-27T21:26:10.775Z,32.20
2019-04-27T21:29:03.203Z,32.20
2019-04-27T21:31:55.403Z,32.20
2019-04-27T21:40:32.169Z,32.20
2019-04-27T21:43:24.409Z,32.20
2019-04-27T21:46:16.905Z,32.20
2019-04-27T21:49:12.720Z,32.20
2019-04-27T21:55:06.386Z,32.20
2019-04-27T21:57:58.638Z,32.20
2019-04-27T22:04:01.787Z,32.30
2019-04-27T22:06:55.550Z,32.20
2019-04-27T22:09:48.714Z,32.20
2019-04-27T22:15:35.171Z,32.20
2019-04-27T22:18:28.268Z,32.20
2019-04-27T22:24:23.260Z,32.20
2019-04-27T22:27:16.633Z,32.20
2019-04-27T22:30:11.025Z,32.30
2019-04-27T22:33:05.359Z,32.30
2019-04-27T22:35:57.989Z,32.20
2019-04-27T22:38:51.972Z,32.20
2019-04-27T22:42:04.671Z,32.30
2019-04-27T22:45:11.064Z,32.20
2019-04-27T22:53:47.685Z,32.30
2019-04-27T22:59:53.814Z,32.30
2019-04-27T23:02:52.954Z,32.30
2019-04-27T23:05:47.367Z,32.30
2019-04-27T23:08:42.839Z,32.30
2019-04-27T23:14:28.553Z,32.30
2019-04-27T23:23:22.637Z,32.30
2019-04-27T23:26:17.446Z,32.30
2019-04-27T23:29:15.561Z,32.30
2019-04-27T23:32:13.137Z,32.30
2019-04-27T23:35:08.479Z,32.30
2019-04-27T23:38:14.759Z,32.30
2019-04-27T23:40:56.227Z,32.40
2019-04-27T23:52:52.447Z,32.40
2019-04-27T23:58:37.435Z,32.40
